Time;durP1;ratioP1;P1;durP2;ratioP2;P2;SDS_P1;SDS_P2;PMS_P1;PMS_P2;Temp;Humidity;BMP_temperature;BMP_pressure;BME280_temperature;BME280_humidity;BME280_pressure;Samples;Min_cycle;Max_cycle;Signal;HPM_P1;HPM_P2
2022/06/17 00:02:06;;;;;;;3.05;0.60;;;24.30;63.00;;;;;;5055200;28;20031;-69
2022/06/17 00:04:32;;;;;;;0.85;0.50;;;24.30;63.10;;;;;;5054943;28;20033;-69
2022/06/17 00:07:06;;;;;;;1.27;0.60;;;24.40;63.10;;;;;;5037496;28;20519;-69
2022/06/17 00:09:32;;;;;;;2.97;0.50;;;24.30;63.20;;;;;;5054982;28;20025;-69
2022/06/17 00:11:57;;;;;;;3.33;0.63;;;24.30;63.30;;;;;;5037233;28;20364;-69
2022/06/17 00:14:33;;;;;;;0.65;0.50;;;24.40;63.40;;;;;;5053543;28;20054;-69
2022/06/17 00:16:59;;;;;;;2.22;0.70;;;24.30;63.30;;;;;;5052800;28;20025;-69
2022/06/17 00:19:25;;;;;;;1.50;0.50;;;24.30;63.40;;;;;;5033628;28;20032;-69
2022/06/17 00:21:52;;;;;;;1.70;0.60;;;24.30;64.40;;;;;;5034779;28;20029;-69
2022/06/17 00:24:24;;;;;;;0.93;0.40;;;24.30;63.40;;;;;;5033457;28;20423;-69
2022/06/17 00:26:50;;;;;;;;;;;24.40;63.40;;;;;;5051593;28;20167;-69
2022/06/17 00:29:17;;;;;;;1.10;0.52;;;24.40;63.40;;;;;;5054099;28;20371;-69
2022/06/17 00:31:42;;;;;;;1.15;0.52;;;24.30;63.40;;;;;;5053284;28;20025;-69
2022/06/17 00:34:08;;;;;;;1.52;0.40;;;24.30;63.40;;;;;;5053234;28;20387;-69
2022/06/17 00:36:34;;;;;;;0.80;0.52;;;24.30;63.40;;;;;;5053371;28;20107;-69
2022/06/17 00:39:00;;;;;;;2.35;0.50;;;24.30;63.30;;;;;;5054485;28;20048;-69
2022/06/17 00:41:33;;;;;;;1.65;0.60;;;24.30;63.30;;;;;;5054528;28;20021;-69
2022/06/17 00:44:33;;;;;;;2.20;0.77;;;24.30;63.30;;;;;;5037087;28;20086;-69
2022/06/17 00:47:11;;;;;;;0.95;0.65;;;24.30;63.30;;;;;;5052755;28;20049;-69
2022/06/17 00:49:56;;;;;;;2.03;0.70;;;24.40;63.40;;;;;;5054357;28;20029;-69
2022/06/17 00:52:28;;;;;;;0.85;0.55;;;24.40;63.40;;;;;;5052876;28;20059;-69
2022/06/17 00:54:55;;;;;;;1.15;0.60;;;24.40;63.40;;;;;;5037119;28;20021;-69
2022/06/17 00:57:38;;;;;;;0.30;0.30;;;24.40;63.40;;;;;;5036376;28;20403;-69
2022/06/17 01:00:06;;;;;;;;;;;24.30;63.30;;;;;;5054492;28;20104;-69
2022/06/17 01:02:41;;;;;;;1.25;0.47;;;24.30;64.30;;;;;;5053861;28;19908;-69
2022/06/17 01:05:07;;;;;;;1.88;0.68;;;24.30;63.30;;;;;;5037426;28;20017;-69
2022/06/17 01:07:36;;;;;;;1.83;0.60;;;24.30;63.40;;;;;;5035895;28;20108;-69
2022/06/17 01:10:08;;;;;;;2.30;0.50;;;24.30;63.50;;;;;;5052684;28;20021;-69
2022/06/17 01:12:49;;;;;;;1.85;0.50;;;24.40;63.60;;;;;;5037271;28;20028;-69
2022/06/17 01:15:20;;;;;;;0.93;0.38;;;24.30;63.50;;;;;;5052709;28;20150;-69
2022/06/17 01:17:46;;;;;;;1.23;0.40;;;24.40;63.70;;;;;;5027540;28;20021;-69
2022/06/17 01:20:12;;;;;;;0.75;0.70;;;24.30;63.60;;;;;;5032528;28;20091;-69
2022/06/17 01:22:46;;;;;;;2.13;0.50;;;24.30;63.70;;;;;;5033716;28;20025;-69
2022/06/17 01:25:22;;;;;;;2.25;0.73;;;24.40;64.70;;;;;;5036435;28;20029;-69
2022/06/17 01:28:02;;;;;;;1.13;0.60;;;24.40;63.80;;;;;;5053624;28;20028;-69
2022/06/17 01:30:40;;;;;;;0.90;0.60;;;24.40;63.80;;;;;;5052061;28;20025;-69
2022/06/17 01:33:30;;;;;;;0.80;0.40;;;24.30;63.80;;;;;;5053234;28;20031;-69
2022/06/17 01:36:01;;;;;;;3.03;1.17;;;24.30;63.80;;;;;;5052685;28;20025;-69
2022/06/17 01:38:28;;;;;;;0.82;0.50;;;24.40;63.90;;;;;;5035706;28;20013;-69
2022/06/17 01:40:54;;;;;;;0.75;0.40;;;24.30;63.90;;;;;;5035120;28;20032;-69
2022/06/17 01:43:20;;;;;;;1.75;0.60;;;24.30;64.00;;;;;;5053068;28;20024;-69
2022/06/17 01:45:56;;;;;;;1.42;0.55;;;24.30;64.00;;;;;;5035200;28;20044;-69
2022/06/17 01:48:23;;;;;;;4.22;0.75;;;24.40;64.10;;;;;;5036410;28;20021;-69
2022/06/17 01:50:48;;;;;;;1.42;0.75;;;24.30;64.10;;;;;;5052101;28;20483;-69
2022/06/17 01:53:16;;;;;;;3.13;1.13;;;24.30;64.00;;;;;;5035290;28;20031;-69
2022/06/17 01:55:54;;;;;;;1.52;0.52;;;24.40;64.10;;;;;;5035358;28;20017;-69
2022/06/17 01:58:35;;;;;;;3.33;0.70;;;24.30;64.00;;;;;;5035430;28;20028;-69
2022/06/17 02:01:02;;;;;;;2.63;0.40;;;24.40;64.10;;;;;;5035590;28;20029;-69
2022/06/17 02:03:33;;;;;;;3.05;0.90;;;24.40;64.10;;;;;;5035281;28;20017;-69
2022/06/17 02:06:09;;;;;;;4.78;0.73;;;24.30;64.00;;;;;;5035829;28;20024;-69
2022/06/17 02:08:35;;;;;;;2.22;0.60;;;24.40;64.10;;;;;;5052800;28;20110;-69
2022/06/17 02:11:02;;;;;;;1.33;0.60;;;24.30;64.00;;;;;;5052852;28;20498;-69
2022/06/17 02:13:27;;;;;;;1.35;0.65;;;24.30;64.00;;;;;;5051247;28;20025;-69
2022/06/17 02:15:53;;;;;;;1.95;0.68;;;24.30;64.00;;;;;;5052688;28;20036;-69
2022/06/17 02:18:19;;;;;;;0.95;0.47;;;24.40;64.00;;;;;;5021652;28;20029;-69
2022/06/17 02:20:49;;;;;;;1.92;0.65;;;24.30;63.90;;;;;;5031655;28;20038;-69
2022/06/17 02:23:15;;;;;;;1.60;0.60;;;24.30;63.90;;;;;;5031406;28;20025;-69
2022/06/17 02:25:43;;;;;;;1.95;0.70;;;24.30;63.90;;;;;;5039324;28;20036;-69
2022/06/17 02:28:09;;;;;;;2.33;0.73;;;24.40;64.00;;;;;;5034828;28;20535;-69
2022/06/17 02:30:35;;;;;;;2.60;0.70;;;24.30;64.00;;;;;;5034539;28;20104;-69
2022/06/17 02:33:03;;;;;;;4.15;0.50;;;24.30;64.00;;;;;;5034626;28;20029;-69
2022/06/17 02:35:40;;;;;;;2.30;0.90;;;24.30;64.10;;;;;;5034692;28;20025;-69
2022/06/17 02:38:06;;;;;;;1.98;0.60;;;24.30;64.10;;;;;;5052558;28;20044;-69
2022/06/17 02:40:34;;;;;;;2.63;0.52;;;24.30;64.00;;;;;;5034365;28;20072;-69
2022/06/17 02:43:05;;;;;;;3.47;0.70;;;24.40;64.10;;;;;;5050924;28;20021;-69
2022/06/17 02:45:32;;;;;;;0.85;0.35;;;24.40;64.20;;;;;;5034913;28;20052;-69
2022/06/17 02:47:58;;;;;;;4.07;0.57;;;24.30;64.00;;;;;;5034799;28;20434;-69
2022/06/17 02:50:25;;;;;;;2.28;0.43;;;24.40;64.10;;;;;;5052077;28;20033;-69
2022/06/17 02:52:51;;;;;;;2.58;0.70;;;24.30;64.10;;;;;;5037877;28;20029;-69
2022/06/17 02:55:28;;;;;;;1.75;0.60;;;24.30;64.00;;;;;;5057550;28;20372;-69
2022/06/17 02:57:58;;;;;;;1.25;0.43;;;24.30;64.00;;;;;;5057610;28;20052;-69
2022/06/17 03:00:24;;;;;;;0.85;0.73;;;24.30;64.00;;;;;;5041287;28;20020;-69
2022/06/17 03:02:53;;;;;;;5.28;0.88;;;24.30;64.00;;;;;;5058808;28;20475;-69
2022/06/17 03:05:26;;;;;;;1.48;0.70;;;24.30;64.10;;;;;;5058750;28;20071;-69
2022/06/17 03:07:52;;;;;;;1.17;0.63;;;24.30;64.00;;;;;;5041516;28;20056;-69
2022/06/17 03:10:35;;;;;;;0.80;0.60;;;24.30;64.00;;;;;;5057385;28;20064;-69
2022/06/17 03:13:04;;;;;;;3.10;0.70;;;24.30;64.00;;;;;;5041717;28;20024;-69
2022/06/17 03:15:30;;;;;;;0.77;0.60;;;24.30;64.10;;;;;;5057444;28;20031;-69
2022/06/17 03:17:55;;;;;;;0.88;0.57;;;24.30;64.00;;;;;;5048482;28;20113;-69
2022/06/17 03:20:28;;;;;;;1.30;0.60;;;24.30;64.00;;;;;;5037325;28;20110;-69
2022/06/17 03:22:58;;;;;;;;;;;24.30;64.10;;;;;;5037933;28;20502;-69
2022/06/17 03:25:29;;;;;;;0.88;0.60;;;24.30;64.00;;;;;;5044402;28;19904;-69
2022/06/17 03:27:56;;;;;;;3.60;0.70;;;24.30;64.10;;;;;;5041370;28;20040;-69
2022/06/17 03:30:28;;;;;;;2.58;0.63;;;24.30;64.00;;;;;;5057220;28;20051;-69
2022/06/17 03:33:16;;;;;;;0.50;0.50;;;24.30;64.20;;;;;;5057458;28;20021;-69
2022/06/17 03:35:42;;;;;;;1.75;0.60;;;24.30;64.20;;;;;;5057201;28;20086;-69
2022/06/17 03:38:26;;;;;;;4.70;0.68;;;24.30;64.20;;;;;;5040729;28;20104;-69
2022/06/17 03:40:54;;;;;;;3.13;0.68;;;24.30;64.20;;;;;;5058309;28;20036;-69
2022/06/17 03:43:44;;;;;;;1.52;0.77;;;24.30;64.20;;;;;;5040981;28;20049;-69
2022/06/17 03:46:10;;;;;;;3.00;0.75;;;24.30;64.20;;;;;;5054551;28;20098;-69
2022/06/17 03:48:46;;;;;;;1.17;0.70;;;24.30;64.50;;;;;;5040738;28;20028;-69
2022/06/17 03:51:21;;;;;;;1.33;0.68;;;24.30;64.40;;;;;;5058218;28;20108;-69
2022/06/17 03:53:47;;;;;;;1.73;0.70;;;24.30;64.40;;;;;;5057260;28;20033;-69
2022/06/17 03:56:22;;;;;;;4.63;0.73;;;24.30;64.50;;;;;;5040464;28;20017;-69
2022/06/17 03:58:48;;;;;;;1.38;0.60;;;24.30;64.50;;;;;;5058515;28;20074;-69
2022/06/17 04:01:14;;;;;;;0.93;0.50;;;24.30;64.50;;;;;;5040558;28;20072;-69
2022/06/17 04:03:40;;;;;;;1.60;0.90;;;24.30;64.60;;;;;;5057072;28;20534;-69
2022/06/17 04:06:15;;;;;;;3.28;0.90;;;24.20;64.50;;;;;;5053799;28;20159;-69
2022/06/17 04:08:55;;;;;;;0.90;0.60;;;24.20;64.50;;;;;;5037522;28;20036;-69
2022/06/17 04:11:21;;;;;;;1.58;0.90;;;24.20;64.50;;;;;;5037751;28;20099;-69
2022/06/17 04:13:47;;;;;;;1.58;0.57;;;24.30;64.60;;;;;;5053801;28;20074;-69
2022/06/17 04:16:30;;;;;;;3.75;0.70;;;24.30;64.60;;;;;;5037154;28;20021;-69
2022/06/17 04:19:07;;;;;;;2.50;0.80;;;24.30;64.70;;;;;;5020526;28;20070;-69
2022/06/17 04:21:33;;;;;;;1.75;0.65;;;24.20;64.70;;;;;;5033554;28;20399;-69
2022/06/17 04:23:58;;;;;;;2.17;0.70;;;24.20;64.80;;;;;;5034841;28;20488;-69
2022/06/17 04:26:30;;;;;;;1.42;0.65;;;24.20;64.80;;;;;;5048523;28;20068;-69
2022/06/17 04:29:04;;;;;;;0.90;0.65;;;24.30;65.00;;;;;;5037436;28;20029;-69
2022/06/17 04:31:30;;;;;;;2.05;0.60;;;24.20;65.00;;;;;;5053306;28;20090;-69
2022/06/17 04:34:02;;;;;;;1.05;0.73;;;24.30;65.00;;;;;;5036898;28;20028;-69
2022/06/17 04:36:35;;;;;;;2.53;0.77;;;24.20;65.00;;;;;;5037337;28;20021;-69
2022/06/17 04:39:03;;;;;;;1.17;0.50;;;24.30;65.10;;;;;;5053151;28;20021;-69
2022/06/17 04:41:31;;;;;;;2.03;0.60;;;24.20;65.00;;;;;;5054424;28;20032;-69
2022/06/17 04:43:57;;;;;;;0.50;0.50;;;24.20;65.10;;;;;;5054217;28;20391;-69
2022/06/17 04:46:27;;;;;;;1.13;0.73;;;24.20;65.20;;;;;;5052980;28;20037;-69
2022/06/17 04:48:57;;;;;;;1.08;0.60;;;24.20;65.20;;;;;;5036889;28;20079;-69
2022/06/17 04:51:26;;;;;;;1.33;0.60;;;24.20;65.20;;;;;;5053325;28;20112;-69
2022/06/17 04:53:52;;;;;;;0.95;0.60;;;24.20;65.20;;;;;;5053100;28;20029;-69
2022/06/17 04:56:28;;;;;;;1.77;0.68;;;24.20;65.20;;;;;;5036351;28;20021;-69
2022/06/17 04:58:54;;;;;;;0.65;0.57;;;24.20;65.30;;;;;;5037425;28;20032;-69
2022/06/17 05:01:20;;;;;;;1.38;0.70;;;24.20;65.40;;;;;;5054259;28;20021;-69
2022/06/17 05:03:45;;;;;;;1.13;0.47;;;24.20;65.40;;;;;;5052820;28;20445;-69
2022/06/17 05:06:11;;;;;;;0.85;0.60;;;24.20;65.50;;;;;;5051639;28;20025;-69
2022/06/17 05:08:39;;;;;;;0.95;0.57;;;24.20;65.40;;;;;;5044289;28;20491;-69
2022/06/17 05:11:10;;;;;;;0.80;0.70;;;24.20;65.60;;;;;;5017448;28;20442;-69
2022/06/17 05:13:56;;;;;;;1.13;0.80;;;24.20;64.80;;;;;;5016076;28;20083;-69
2022/06/17 05:16:22;;;;;;;0.60;0.60;;;24.20;63.10;;;;;;5030957;28;20017;-69
2022/06/17 05:18:49;;;;;;;0.70;0.50;;;24.10;62.00;;;;;;5033101;28;20026;-69
2022/06/17 05:21:22;;;;;;;1.05;0.47;;;24.10;61.90;;;;;;5031934;28;20426;-69
2022/06/17 05:23:49;;;;;;;0.70;0.70;;;24.10;61.50;;;;;;5031937;28;20056;-70
2022/06/17 05:26:15;;;;;;;0.52;0.52;;;24.10;61.50;;;;;;5045031;28;20491;-69
2022/06/17 05:28:40;;;;;;;0.70;0.57;;;24.10;61.40;;;;;;5053502;28;20036;-69
2022/06/17 05:31:06;;;;;;;1.17;0.75;;;24.10;61.50;;;;;;5052210;28;20029;-69
2022/06/17 05:33:31;;;;;;;1.05;0.70;;;24.10;61.50;;;;;;5053513;28;20462;-69
2022/06/17 05:35:57;;;;;;;3.25;0.70;;;24.10;61.40;;;;;;5053463;28;20020;-69
2022/06/17 05:38:23;;;;;;;2.92;0.60;;;24.10;61.60;;;;;;5053273;28;20025;-69
2022/06/17 05:40:48;;;;;;;1.92;0.70;;;24.10;61.50;;;;;;5053255;28;20017;-69
2022/06/17 05:43:14;;;;;;;1.02;0.50;;;24.10;61.50;;;;;;5053276;28;20033;-69
2022/06/17 05:45:39;;;;;;;0.60;0.55;;;24.10;61.50;;;;;;5052864;28;20044;-69
2022/06/17 05:48:05;;;;;;;0.93;0.60;;;24.10;61.90;;;;;;5052289;28;20407;-69
2022/06/17 05:50:31;;;;;;;0.95;0.60;;;24.10;61.70;;;;;;5053036;28;20029;-69
2022/06/17 05:53:02;;;;;;;0.63;0.60;;;24.10;61.40;;;;;;5051694;28;20031;-70
2022/06/17 05:55:29;;;;;;;0.60;0.47;;;24.10;61.50;;;;;;5036106;28;20098;-70
2022/06/17 05:57:55;;;;;;;1.10;0.70;;;24.10;61.70;;;;;;5035295;28;20033;-69
2022/06/17 06:00:23;;;;;;;0.60;0.60;;;24.10;61.60;;;;;;5051807;28;20033;-69
2022/06/17 06:02:49;;;;;;;0.80;0.70;;;24.10;61.80;;;;;;5035425;28;20029;-69
2022/06/17 06:05:20;;;;;;;2.45;0.55;;;24.10;61.70;;;;;;5035443;28;20476;-69
2022/06/17 06:07:46;;;;;;;0.90;0.65;;;24.00;61.70;;;;;;5051490;28;20112;-69
2022/06/17 06:10:12;;;;;;;0.73;0.50;;;24.00;61.80;;;;;;5052850;28;20021;-69
2022/06/17 06:15:26;;;;;;;2.70;0.60;;;24.00;61.80;;;;;;5053025;28;20108;-69
2022/06/17 06:17:52;;;;;;;0.63;0.63;;;24.00;62.00;;;;;;5041790;28;20065;-69
2022/06/17 06:20:18;;;;;;;0.75;0.60;;;24.00;62.00;;;;;;5031540;28;20064;-69
2022/06/17 06:22:44;;;;;;;0.60;0.60;;;24.00;61.70;;;;;;5032667;28;20061;-69
2022/06/17 06:25:10;;;;;;;1.02;0.60;;;24.00;61.70;;;;;;5036385;28;20017;-69
2022/06/17 06:27:36;;;;;;;1.13;0.70;;;24.00;61.50;;;;;;5034502;28;20028;-69
2022/06/17 06:30:02;;;;;;;1.05;0.68;;;24.00;61.60;;;;;;5049881;28;20411;-69
2022/06/17 06:32:28;;;;;;;1.13;0.60;;;24.00;61.50;;;;;;5030787;28;20021;-69
2022/06/17 06:34:54;;;;;;;0.60;0.60;;;24.00;61.50;;;;;;5032472;28;20018;-69
2022/06/17 06:37:19;;;;;;;0.68;0.50;;;24.00;61.70;;;;;;5032003;28;20029;-69
2022/06/17 06:39:45;;;;;;;0.60;0.60;;;24.00;61.70;;;;;;5031855;28;20021;-69
2022/06/17 06:42:11;;;;;;;0.75;0.60;;;24.00;61.70;;;;;;5030937;28;20036;-69
2022/06/17 06:44:36;;;;;;;1.55;0.65;;;24.00;61.90;;;;;;5030732;28;20026;-69
2022/06/17 06:47:02;;;;;;;2.38;0.70;;;24.00;61.90;;;;;;5032672;28;20091;-69
2022/06/17 06:49:28;;;;;;;0.60;0.60;;;24.00;61.90;;;;;;5031133;28;20025;-69
2022/06/17 06:51:54;;;;;;;1.15;0.88;;;24.00;61.80;;;;;;5031206;28;20037;-69
2022/06/17 06:54:19;;;;;;;1.35;0.73;;;24.00;61.70;;;;;;5032396;28;20025;-69
2022/06/17 06:56:45;;;;;;;1.17;0.90;;;24.00;61.80;;;;;;5032412;28;20044;-69
2022/06/17 06:59:13;;;;;;;2.30;0.77;;;24.00;61.80;;;;;;5032411;28;20510;-69
2022/06/17 07:01:39;;;;;;;2.92;0.65;;;24.00;61.80;;;;;;5032670;28;20035;-69
2022/06/17 07:04:05;;;;;;;0.90;0.70;;;24.00;61.80;;;;;;5041421;28;20021;-69
2022/06/17 07:06:31;;;;;;;2.30;1.05;;;24.00;61.90;;;;;;5043312;28;20061;-69
2022/06/17 07:08:57;;;;;;;0.88;0.60;;;24.00;62.00;;;;;;5030842;28;20032;-69
2022/06/17 07:11:22;;;;;;;1.38;0.80;;;24.00;62.00;;;;;;5043569;28;20399;-69
2022/06/17 07:13:48;;;;;;;1.33;0.63;;;23.90;61.90;;;;;;5051774;28;20029;-69
2022/06/17 07:16:14;;;;;;;1.58;0.68;;;24.00;62.00;;;;;;5052044;28;20021;-69
2022/06/17 07:18:39;;;;;;;2.17;0.88;;;23.90;62.00;;;;;;5038019;28;20403;-69
2022/06/17 07:21:07;;;;;;;1.02;0.82;;;24.00;62.10;;;;;;5050939;28;20029;-69
2022/06/17 07:23:36;;;;;;;2.80;0.70;;;23.90;62.00;;;;;;5034571;28;20036;-69
2022/06/17 07:26:05;;;;;;;1.42;0.65;;;23.90;62.00;;;;;;5050769;28;20430;-69
2022/06/17 07:28:31;;;;;;;1.60;1.17;;;23.90;61.90;;;;;;5017959;28;20440;-69
2022/06/17 07:30:57;;;;;;;1.70;0.90;;;23.90;61.70;;;;;;5050345;28;20555;-69
2022/06/17 07:33:23;;;;;;;1.70;1.00;;;23.90;61.70;;;;;;5051937;28;20074;-69
2022/06/17 07:35:53;;;;;;;1.90;0.90;;;23.90;62.00;;;;;;5047647;28;20104;-69
2022/06/17 07:41:04;;;;;;;1.45;1.10;;;23.90;61.50;;;;;;5034466;28;20044;-69
2022/06/17 07:43:30;;;;;;;0.80;0.80;;;23.90;61.40;;;;;;5034592;28;20121;-69
2022/06/17 07:45:56;;;;;;;1.38;0.85;;;23.90;61.40;;;;;;5034324;28;20124;-69
2022/06/17 07:48:21;;;;;;;2.40;0.88;;;23.90;61.40;;;;;;5034438;28;20034;-69
2022/06/17 07:50:47;;;;;;;2.35;1.10;;;23.90;61.40;;;;;;5035559;28;20113;-69
2022/06/17 07:53:13;;;;;;;1.58;0.90;;;23.90;61.30;;;;;;5034127;28;20060;-69
2022/06/17 07:55:39;;;;;;;0.93;0.70;;;23.90;61.30;;;;;;5034211;28;20088;-69
2022/06/17 07:58:05;;;;;;;1.60;0.75;;;23.90;61.30;;;;;;5035509;28;20021;-69
2022/06/17 08:00:35;;;;;;;1.00;0.90;;;23.90;61.10;;;;;;5035391;28;20029;-69
2022/06/17 08:03:02;;;;;;;1.80;1.00;;;23.90;61.20;;;;;;5033598;28;20108;-69
2022/06/17 08:05:28;;;;;;;2.35;0.95;;;23.90;61.10;;;;;;5034211;28;20615;-69
2022/06/17 08:07:55;;;;;;;1.35;0.77;;;23.90;61.10;;;;;;5033889;28;20108;-69
2022/06/17 08:10:23;;;;;;;2.08;0.77;;;23.90;61.10;;;;;;5040189;28;20017;-69
2022/06/17 08:12:49;;;;;;;1.23;0.90;;;23.90;61.00;;;;;;5054018;28;20021;-69
2022/06/17 08:15:15;;;;;;;1.73;0.82;;;23.90;61.00;;;;;;5037197;28;20024;-69
2022/06/17 08:17:41;;;;;;;3.25;0.80;;;23.90;60.90;;;;;;5054784;28;20025;-69
2022/06/17 08:20:14;;;;;;;2.70;1.00;;;23.90;60.90;;;;;;5053724;28;20032;-69
2022/06/17 08:22:41;;;;;;;2.67;0.80;;;23.90;60.90;;;;;;5037993;28;20031;-69
2022/06/17 08:25:07;;;;;;;1.45;0.88;;;23.90;60.90;;;;;;5054868;28;20025;-69
2022/06/17 08:27:32;;;;;;;0.90;0.90;;;23.90;60.90;;;;;;5054832;28;20029;-69
2022/06/17 08:29:58;;;;;;;1.85;0.90;;;23.90;60.90;;;;;;5054582;28;20510;-69
2022/06/17 08:35:09;;;;;;;2.05;1.10;;;23.90;60.90;;;;;;5054712;28;20402;-69
2022/06/17 08:37:35;;;;;;;1.20;0.77;;;23.90;60.90;;;;;;5054546;28;20021;-69
2022/06/17 08:40:02;;;;;;;2.45;1.05;;;23.90;60.80;;;;;;5053195;28;20071;-69
2022/06/17 08:43:05;;;;;;;1.70;1.10;;;23.90;60.80;;;;;;5036830;28;20035;-69
2022/06/17 08:45:45;;;;;;;3.70;1.08;;;23.90;60.80;;;;;;5053162;28;20048;-69
2022/06/17 08:48:37;;;;;;;2.90;1.13;;;23.90;60.70;;;;;;5053332;28;20434;-69
2022/06/17 08:51:12;;;;;;;2.90;0.80;;;23.90;60.80;;;;;;5052665;28;20052;-69
2022/06/17 08:54:06;;;;;;;2.33;1.23;;;23.90;60.80;;;;;;5054275;28;20052;-69
2022/06/17 08:56:35;;;;;;;1.50;0.90;;;23.90;60.70;;;;;;5053184;28;20487;-69
2022/06/17 08:59:16;;;;;;;1.00;0.90;;;23.90;60.70;;;;;;5052920;28;20025;-69
2022/06/17 09:02:02;;;;;;;2.17;1.10;;;23.90;60.80;;;;;;5037991;28;20182;-69
2022/06/17 09:04:40;;;;;;;1.08;0.80;;;23.90;60.70;;;;;;5038410;28;20059;-69
2022/06/17 09:07:29;;;;;;;1.95;1.10;;;23.90;60.80;;;;;;5034171;28;20480;-69
2022/06/17 09:10:14;;;;;;;1.20;0.95;;;23.90;60.70;;;;;;5054260;28;20041;-69
2022/06/17 09:12:54;;;;;;;1.13;0.80;;;23.90;60.80;;;;;;5071945;28;20025;-69
2022/06/17 09:15:36;;;;;;;1.58;1.05;;;23.90;60.70;;;;;;5071665;28;20044;-69
2022/06/17 09:18:10;;;;;;;1.65;1.00;;;23.90;60.70;;;;;;5054880;28;20025;-69
2022/06/17 09:20:42;;;;;;;2.08;1.10;;;23.90;60.70;;;;;;5071630;28;20059;-69
2022/06/17 09:23:08;;;;;;;0.77;0.77;;;23.90;60.70;;;;;;5054658;28;20537;-69
2022/06/17 09:25:44;;;;;;;2.70;1.15;;;23.90;60.70;;;;;;5054832;28;20033;-69
2022/06/17 09:28:19;;;;;;;1.50;1.10;;;23.90;60.70;;;;;;5054905;28;20372;-69
2022/06/17 09:30:49;;;;;;;1.20;1.05;;;23.90;60.70;;;;;;5055399;28;20036;-69
2022/06/17 09:33:24;;;;;;;2.35;1.27;;;23.90;60.70;;;;;;5054489;28;20058;-69
2022/06/17 09:35:59;;;;;;;2.25;1.25;;;23.90;60.70;;;;;;5055267;28;20054;-69
2022/06/17 09:38:52;;;;;;;2.15;1.23;;;23.90;60.60;;;;;;5054647;28;20017;-69
2022/06/17 09:41:46;;;;;;;0.90;0.90;;;23.90;60.60;;;;;;5064924;28;20040;-69
2022/06/17 09:44:24;;;;;;;3.10;1.40;;;23.90;60.70;;;;;;5056792;28;20032;-69
2022/06/17 09:47:05;;;;;;;1.75;1.20;;;23.90;60.70;;;;;;5062536;28;20068;-69
2022/06/17 09:49:49;;;;;;;3.17;0.85;;;23.90;60.70;;;;;;5052069;28;20031;-69
2022/06/17 09:52:18;;;;;;;1.23;0.90;;;23.90;60.70;;;;;;5036207;28;20032;-69
2022/06/17 09:54:58;;;;;;;1.58;1.00;;;23.90;60.70;;;;;;5035651;28;20024;-69
2022/06/17 09:57:31;;;;;;;1.33;1.00;;;23.90;60.70;;;;;;5052931;28;20036;-69
2022/06/17 10:00:07;;;;;;;0.88;0.88;;;23.90;60.60;;;;;;5035886;28;20498;-69
2022/06/17 10:02:48;;;;;;;1.35;1.20;;;23.90;60.60;;;;;;5052292;28;20074;-69
2022/06/17 10:05:23;;;;;;;3.70;1.20;;;23.90;60.60;;;;;;5032941;28;20040;-69
2022/06/17 10:07:53;;;;;;;2.03;0.90;;;23.90;60.60;;;;;;5031713;28;20432;-69
2022/06/17 10:10:37;;;;;;;1.52;0.98;;;23.90;60.60;;;;;;5018277;28;20014;-69
2022/06/17 10:13:12;;;;;;;0.93;0.93;;;23.90;60.60;;;;;;5016958;28;20473;-69
2022/06/17 10:15:40;;;;;;;1.25;0.90;;;23.90;60.60;;;;;;5031610;28;20044;-69
2022/06/17 10:18:37;;;;;;;0.93;0.80;;;23.90;60.60;;;;;;5031652;28;20107;-69
2022/06/17 10:21:25;;;;;;;1.83;1.00;;;23.90;60.60;;;;;;5031611;28;20029;-69
2022/06/17 10:23:57;;;;;;;2.17;0.90;;;23.90;60.50;;;;;;5031394;28;20026;-69
2022/06/17 10:26:34;;;;;;;2.47;1.10;;;23.90;60.50;;;;;;5032502;28;20057;-69
2022/06/17 10:29:35;;;;;;;2.70;1.00;;;23.90;60.50;;;;;;5047855;28;20037;-69
2022/06/17 10:32:01;;;;;;;2.33;1.15;;;23.90;60.50;;;;;;5031528;28;20480;-69
2022/06/17 10:34:29;;;;;;;2.00;1.35;;;23.90;60.50;;;;;;5014985;28;20029;-69
2022/06/17 10:36:56;;;;;;;2.03;1.15;;;23.90;60.60;;;;;;5015291;28;20447;-69
2022/06/17 10:39:23;;;;;;;1.25;0.95;;;23.90;60.60;;;;;;5031413;28;20455;-69
2022/06/17 10:41:49;;;;;;;1.35;0.90;;;23.90;60.50;;;;;;5032319;28;20026;-69
2022/06/17 10:44:16;;;;;;;0.90;0.90;;;24.00;60.50;;;;;;5014826;28;20056;-69
2022/06/17 10:46:44;;;;;;;1.48;1.00;;;23.90;60.50;;;;;;5014893;28;20159;-69
2022/06/17 10:49:17;;;;;;;1.00;0.90;;;23.90;60.50;;;;;;5030969;28;20133;-69
2022/06/17 10:51:43;;;;;;;1.42;1.10;;;24.00;60.60;;;;;;5015032;28;20056;-69
2022/06/17 10:54:34;;;;;;;1.98;0.98;;;24.00;60.60;;;;;;5031043;28;20049;-69
2022/06/17 10:57:11;;;;;;;1.60;1.10;;;24.00;60.70;;;;;;5030585;28;20507;-69
2022/06/17 10:59:46;;;;;;;1.10;1.00;;;24.00;60.60;;;;;;5031112;28;20113;-69
2022/06/17 11:02:21;;;;;;;1.20;1.00;;;24.00;60.50;;;;;;5032241;28;20484;-69
2022/06/17 11:04:59;;;;;;;2.13;1.00;;;24.00;60.50;;;;;;5032180;28;20072;-69
2022/06/17 11:07:39;;;;;;;1.42;1.08;;;24.00;60.50;;;;;;5031054;28;20029;-69
2022/06/17 11:10:05;;;;;;;1.05;0.80;;;24.00;60.60;;;;;;5034747;28;20024;-69
2022/06/17 11:12:38;;;;;;;1.20;0.90;;;24.00;60.50;;;;;;5050876;28;20079;-69
2022/06/17 11:15:18;;;;;;;0.90;0.90;;;24.00;60.50;;;;;;5037969;28;20051;-69
2022/06/17 11:17:45;;;;;;;1.00;0.90;;;24.00;60.60;;;;;;5056196;28;20021;-69
2022/06/17 11:20:27;;;;;;;2.08;0.93;;;24.00;60.50;;;;;;5038288;28;20025;-69
2022/06/17 11:22:54;;;;;;;3.63;1.25;;;24.00;60.50;;;;;;5054838;28;20108;-69
2022/06/17 11:25:37;;;;;;;1.17;1.08;;;24.00;60.50;;;;;;5055826;28;20029;-69
2022/06/17 11:28:25;;;;;;;1.55;1.05;;;24.00;60.50;;;;;;5054929;28;20021;-69
2022/06/17 11:31:10;;;;;;;1.10;1.00;;;24.00;60.50;;;;;;5054671;28;20032;-69
2022/06/17 11:33:41;;;;;;;1.65;1.02;;;24.00;60.50;;;;;;5039156;28;20020;-69
2022/06/17 11:36:27;;;;;;;1.15;1.00;;;24.00;60.50;;;;;;5054671;28;20025;-69
2022/06/17 11:38:53;;;;;;;1.90;0.88;;;24.00;60.50;;;;;;5055567;28;20021;-69
2022/06/17 11:41:29;;;;;;;1.75;1.00;;;24.00;60.40;;;;;;5055517;28;20158;-69
2022/06/17 11:43:56;;;;;;;1.15;1.02;;;24.00;60.40;;;;;;5038057;28;20051;-69
2022/06/17 11:46:26;;;;;;;2.03;1.20;;;24.00;60.40;;;;;;5055390;28;20506;-69
2022/06/17 11:48:55;;;;;;;1.42;0.90;;;24.00;60.30;;;;;;5037931;28;20027;-69
2022/06/17 11:51:32;;;;;;;1.42;1.10;;;24.00;60.20;;;;;;5037810;28;20033;-69
2022/06/17 11:54:02;;;;;;;2.75;1.00;;;24.00;60.10;;;;;;5038318;28;20540;-69
2022/06/17 11:56:35;;;;;;;1.10;1.00;;;24.10;60.10;;;;;;5054183;28;20021;-69
2022/06/17 11:59:08;;;;;;;1.67;1.10;;;24.10;60.10;;;;;;5053972;28;20021;-69
2022/06/17 12:01:33;;;;;;;1.52;1.00;;;24.00;60.00;;;;;;5054188;28;20036;-69
2022/06/17 12:03:59;;;;;;;1.55;1.00;;;24.10;60.00;;;;;;5043522;28;20029;-69
2022/06/17 12:06:45;;;;;;;2.00;1.35;;;24.10;60.00;;;;;;5035312;28;20076;-69
2022/06/17 12:09:22;;;;;;;1.13;0.95;;;24.10;60.00;;;;;;5033818;28;20021;-69
2022/06/17 12:11:58;;;;;;;3.58;1.02;;;24.10;60.00;;;;;;5051937;28;20024;-69
2022/06/17 12:14:53;;;;;;;1.48;1.10;;;24.10;60.00;;;;;;5038429;28;20013;-69
2022/06/17 12:17:19;;;;;;;1.25;1.10;;;24.10;60.00;;;;;;5054337;28;20036;-69
2022/06/17 12:19:44;;;;;;;1.20;1.10;;;24.10;60.00;;;;;;5053756;28;20368;-69
2022/06/17 12:22:11;;;;;;;1.50;1.17;;;24.10;60.00;;;;;;5053776;28;20547;-69
2022/06/17 12:24:47;;;;;;;2.05;1.05;;;24.10;60.00;;;;;;5054368;28;20086;-69
2022/06/17 12:27:28;;;;;;;1.70;1.20;;;24.10;60.00;;;;;;5053435;28;20021;-69
2022/06/17 12:30:03;;;;;;;1.15;0.93;;;24.10;60.00;;;;;;5053637;28;20638;-69
2022/06/17 12:32:35;;;;;;;2.22;1.27;;;24.10;60.00;;;;;;5054618;28;20062;-69
2022/06/17 12:35:17;;;;;;;1.88;1.30;;;24.10;60.00;;;;;;5053301;28;20439;-69
2022/06/17 12:37:58;;;;;;;1.92;1.08;;;24.10;60.10;;;;;;5053243;28;20017;-69
2022/06/17 12:40:39;;;;;;;1.45;1.27;;;24.10;60.10;;;;;;5053451;28;20025;-69
2022/06/17 12:43:31;;;;;;;1.83;1.00;;;24.20;60.20;;;;;;5037476;28;20052;-69
2022/06/17 12:46:02;;;;;;;1.27;1.00;;;24.20;60.20;;;;;;5053234;28;20132;-69
2022/06/17 12:53:13;;;;;;;2.92;1.20;;;24.10;60.20;;;;;;5053330;28;20017;-69
2022/06/17 12:55:09;;;;;;;1.17;1.08;;;24.20;60.40;;;;;;5040164;28;20024;-69
2022/06/17 12:58:12;;;;;;;1.10;1.00;;;24.20;60.40;;;;;;5039134;28;20029;-69
2022/06/17 13:00:58;;;;;;;1.77;1.10;;;24.20;60.40;;;;;;5054203;28;20368;-69
2022/06/17 13:03:30;;;;;;;1.75;0.98;;;24.20;60.40;;;;;;5031123;28;20026;-69
2022/06/17 13:05:57;;;;;;;1.17;1.10;;;24.20;60.50;;;;;;5034413;28;20083;-69
2022/06/17 13:08:58;;;;;;;1.40;1.10;;;24.20;60.40;;;;;;5033030;28;20040;-69
2022/06/17 13:11:41;;;;;;;1.88;1.05;;;24.20;60.40;;;;;;5048435;28;20090;-69
2022/06/17 13:14:59;;;;;;;1.80;1.10;;;24.30;60.50;;;;;;5052938;28;20194;-69
2022/06/17 13:17:32;;;;;;;1.15;1.05;;;24.30;60.50;;;;;;5035000;28;20092;-69
2022/06/17 13:20:16;;;;;;;1.50;1.20;;;24.30;60.60;;;;;;5035293;28;20376;-69
2022/06/17 13:22:45;;;;;;;1.55;1.00;;;24.30;60.60;;;;;;5035059;28;20128;-69
2022/06/17 13:25:27;;;;;;;3.00;1.40;;;24.30;60.60;;;;;;5051447;28;20057;-69